createdAt,value
2019-03-24T00:04:39.224Z,7.88
2019-03-24T00:09:41.678Z,7.86
2019-03-24T00:14:44.085Z,7.92
2019-03-24T00:19:46.436Z,7.87
2019-03-24T00:24:48.847Z,7.89
2019-03-24T00:29:55.165Z,7.92
2019-03-24T00:34:57.557Z,7.93
2019-03-24T00:40:00.006Z,7.91
2019-03-24T00:45:03.328Z,7.85
2019-03-24T00:50:06.318Z,8.06
2019-03-24T00:55:09.004Z,8.20
2019-03-24T01:00:12.553Z,8.22
2019-03-24T01:05:15.009Z,8.21
2019-03-24T01:10:17.397Z,8.12
2019-03-24T01:15:19.784Z,8.13
2019-03-24T01:20:22.343Z,8.08
2019-03-24T01:25:24.700Z,8.09
2019-03-24T01:30:27.095Z,8.02
2019-03-24T01:35:29.470Z,7.98
2019-03-24T01:40:32.097Z,7.91
2019-03-24T01:45:34.558Z,7.79
2019-03-24T01:50:37.002Z,7.73
2019-03-24T01:55:39.607Z,7.78
2019-03-24T02:00:42.210Z,7.79
2019-03-24T02:05:44.668Z,7.72
2019-03-24T02:16:10.663Z,7.53
2019-03-24T02:21:13.009Z,7.44
2019-03-24T02:26:15.397Z,7.37
2019-03-24T02:31:17.768Z,7.33
2019-03-24T02:36:20.319Z,7.18
2019-03-24T02:41:22.679Z,7.22
2019-03-24T02:46:25.414Z,7.11
2019-03-24T02:51:27.810Z,7.06
2019-03-24T02:56:30.333Z,7.05
2019-03-24T03:01:32.706Z,6.99
2019-03-24T03:06:35.078Z,6.92
2019-03-24T03:11:37.438Z,6.83
2019-03-24T03:16:39.806Z,6.85
2019-03-24T03:21:42.181Z,6.79
2019-03-24T03:26:44.541Z,6.82
2019-03-24T03:31:46.909Z,6.69
2019-03-24T03:36:49.284Z,6.55
2019-03-24T03:41:51.764Z,6.54
2019-03-24T03:46:54.312Z,6.48
2019-03-24T03:51:56.773Z,6.53
2019-03-24T03:56:59.139Z,6.37
2019-03-24T04:02:01.551Z,6.32
2019-03-24T04:07:03.947Z,6.20
2019-03-24T04:12:06.424Z,6.08
2019-03-24T04:17:08.896Z,6.04
2019-03-24T04:22:11.253Z,6.01
2019-03-24T04:27:13.671Z,6.03
2019-03-24T04:32:17.033Z,5.92
2019-03-24T04:37:19.395Z,5.73
2019-03-24T04:42:22.149Z,5.62
2019-03-24T04:47:24.521Z,5.50
2019-03-24T04:52:26.891Z,5.48
2019-03-24T04:57:29.687Z,5.30
2019-03-24T05:02:32.204Z,5.17
2019-03-24T05:07:35.254Z,5.07
2019-03-24T05:12:37.650Z,4.97
2019-03-24T05:17:41.207Z,4.85
2019-03-24T05:22:43.594Z,4.75
2019-03-24T05:27:46.007Z,4.70
2019-03-24T05:32:48.359Z,4.64
2019-03-24T05:37:50.725Z,4.62
2019-03-24T05:42:53.147Z,4.62
2019-03-24T05:47:55.699Z,4.56
2019-03-24T05:52:58.868Z,4.52
2019-03-24T05:58:01.776Z,4.48
2019-03-24T06:03:04.139Z,4.54
2019-03-24T06:08:06.500Z,4.41
2019-03-24T06:13:08.890Z,4.52
2019-03-24T06:18:11.548Z,4.71
2019-03-24T06:23:13.915Z,4.73
2019-03-24T06:28:16.349Z,4.89
2019-03-24T06:33:18.720Z,4.79
2019-03-24T06:38:27.060Z,4.76
2019-03-24T06:43:29.461Z,4.85
2019-03-24T06:48:31.804Z,4.91
2019-03-24T06:53:34.164Z,5.19
2019-03-24T06:58:36.880Z,5.40
2019-03-24T07:03:39.240Z,5.16
2019-03-24T07:08:41.594Z,5.19
2019-03-24T07:13:43.967Z,5.43
2019-03-24T07:18:46.346Z,5.49
2019-03-24T07:23:48.795Z,5.40
2019-03-24T07:28:51.383Z,5.44
2019-03-24T07:33:53.864Z,5.47
2019-03-24T07:38:56.299Z,5.35
2019-03-24T07:43:58.780Z,5.42
2019-03-24T07:49:01.251Z,5.41
2019-03-24T07:54:03.810Z,5.55
2019-03-24T07:59:06.324Z,5.69
2019-03-24T08:04:08.675Z,5.69
2019-03-24T08:09:11.125Z,5.69
2019-03-24T08:14:13.991Z,5.59
2019-03-24T08:19:16.354Z,5.61
2019-03-24T08:24:18.702Z,5.60
2019-03-24T08:29:24.453Z,5.62
2019-03-24T08:34:26.795Z,5.71
2019-03-24T08:39:29.183Z,5.71
2019-03-24T08:44:31.914Z,5.95
2019-03-24T08:49:34.264Z,6.04
2019-03-24T08:54:36.620Z,6.11
2019-03-24T08:59:39.000Z,5.93
2019-03-24T09:04:41.378Z,6.19
2019-03-24T09:09:43.900Z,6.33
2019-03-24T09:14:46.283Z,6.00
2019-03-24T09:19:48.648Z,5.86
2019-03-24T09:24:51.017Z,5.99
2019-03-24T09:29:53.407Z,5.86
2019-03-24T09:34:55.857Z,5.94
2019-03-24T09:39:58.295Z,5.92
2019-03-24T09:45:00.722Z,5.99
2019-03-24T09:50:04.067Z,6.14
2019-03-24T09:55:06.568Z,6.25
2019-03-24T10:00:09.216Z,6.66
2019-03-24T10:05:12.240Z,6.86
2019-03-24T10:10:14.795Z,7.20
2019-03-24T10:15:17.187Z,7.13
2019-03-24T10:20:19.543Z,7.34
2019-03-24T10:25:21.915Z,7.70
2019-03-24T10:30:24.914Z,8.06
2019-03-24T10:35:27.268Z,8.06
2019-03-24T10:40:29.661Z,8.01
2019-03-24T10:45:32.092Z,7.99
2019-03-24T10:50:34.444Z,8.19
2019-03-24T10:55:36.830Z,8.20
2019-03-24T11:00:44.316Z,7.98
2019-03-24T11:05:46.686Z,8.12
2019-03-24T11:10:49.380Z,7.97
2019-03-24T11:15:51.748Z,8.19
2019-03-24T11:20:54.149Z,8.17
2019-03-24T11:25:56.620Z,8.09
2019-03-24T11:30:59.012Z,7.98
2019-03-24T11:36:01.364Z,7.73
2019-03-24T11:41:03.977Z,7.75
2019-03-24T11:46:06.364Z,7.60
2019-03-24T11:51:08.724Z,7.64
2019-03-24T11:56:11.138Z,8.05
2019-03-24T12:01:13.588Z,8.14
2019-03-24T12:06:15.960Z,7.91
2019-03-24T12:11:19.452Z,7.87
2019-03-24T12:16:22.118Z,7.82
2019-03-24T12:21:24.475Z,7.87
2019-03-24T12:26:26.863Z,7.79
2019-03-24T12:31:32.200Z,7.79
2019-03-24T12:36:34.669Z,7.98
2019-03-24T12:41:37.087Z,8.13
2019-03-24T12:46:39.518Z,8.07
2019-03-24T12:51:43.425Z,8.02
2019-03-24T12:56:45.813Z,8.05
2019-03-24T13:01:48.257Z,8.03
2019-03-24T13:06:50.623Z,8.07
2019-03-24T13:11:55.723Z,8.14
2019-03-24T13:16:58.181Z,8.32
2019-03-24T13:22:03.685Z,8.32
2019-03-24T13:27:06.167Z,8.38
2019-03-24T13:32:11.500Z,8.42
2019-03-24T13:37:13.884Z,8.82
2019-03-24T13:42:16.304Z,9.34
2019-03-24T13:47:21.687Z,9.59
2019-03-24T13:52:24.039Z,9.79
2019-03-24T13:57:29.397Z,9.77
2019-03-24T14:02:34.443Z,9.97
2019-03-24T14:07:36.795Z,10.26
2019-03-24T14:12:39.235Z,10.75
2019-03-24T14:17:42.702Z,12.03
2019-03-24T14:22:48.367Z,14.95
2019-03-24T14:27:50.876Z,16.48
2019-03-24T14:32:56.298Z,17.21
2019-03-24T14:38:01.444Z,17.54
2019-03-24T14:43:04.280Z,18.20
2019-03-24T14:48:06.699Z,16.88
2019-03-24T14:53:09.064Z,15.20
2019-03-24T14:58:12.856Z,13.40
2019-03-24T15:03:15.338Z,12.69
2019-03-24T15:08:17.731Z,13.89
2019-03-24T15:13:20.173Z,17.07
2019-03-24T15:18:22.659Z,17.96
2019-03-24T15:23:25.113Z,19.41
2019-03-24T15:28:30.477Z,17.18
2019-03-24T15:33:32.907Z,16.38
2019-03-24T15:38:38.180Z,15.72
2019-03-24T15:43:41.227Z,16.70
2019-03-24T15:48:50.214Z,16.74
2019-03-24T15:53:52.616Z,17.27
2019-03-24T15:58:55.091Z,17.45
2019-03-24T16:04:00.332Z,17.20
2019-03-24T16:09:05.848Z,14.99
2019-03-24T16:14:08.229Z,14.73
2019-03-24T16:19:10.728Z,13.85
2019-03-24T16:24:13.778Z,13.22
2019-03-24T16:29:16.462Z,12.63
2019-03-24T16:34:18.897Z,12.15
2019-03-24T16:39:21.274Z,11.06
2019-03-24T16:44:23.679Z,10.76
2019-03-24T16:49:26.047Z,10.86
2019-03-24T16:54:28.396Z,10.66
2019-03-24T16:59:30.941Z,10.25
2019-03-24T17:04:33.498Z,10.30
2019-03-24T17:09:35.831Z,10.16
2019-03-24T17:14:38.432Z,10.06
2019-03-24T17:19:40.823Z,9.77
2019-03-24T17:24:43.188Z,9.65
2019-03-24T17:29:45.743Z,9.48
2019-03-24T17:34:48.479Z,9.44
2019-03-24T17:39:51.004Z,9.26
2019-03-24T17:44:53.498Z,9.00
2019-03-24T17:49:55.882Z,8.89
2019-03-24T17:54:58.297Z,8.79
2019-03-24T18:00:00.747Z,8.77
2019-03-24T18:05:04.829Z,8.57
2019-03-24T18:10:08.540Z,8.45
2019-03-24T18:15:11.531Z,8.20
2019-03-24T18:20:19.547Z,8.26
2019-03-24T18:25:21.935Z,8.18
2019-03-24T18:30:26.549Z,8.14
2019-03-24T18:35:29.115Z,8.18
2019-03-24T18:40:31.594Z,8.21
2019-03-24T18:45:33.992Z,7.96
2019-03-24T18:50:37.479Z,7.83
2019-03-24T18:55:42.777Z,7.86
2019-03-24T19:00:45.351Z,7.77
2019-03-24T19:05:48.940Z,7.78
2019-03-24T19:10:51.518Z,7.79
2019-03-24T19:15:54.348Z,7.94
2019-03-24T19:20:56.724Z,8.03
2019-03-24T19:25:59.097Z,8.05
2019-03-24T19:31:02.009Z,8.06
2019-03-24T19:36:04.580Z,7.97
2019-03-24T19:41:06.937Z,7.88
2019-03-24T19:46:09.595Z,7.72
2019-03-24T19:51:11.984Z,7.37
2019-03-24T19:56:15.643Z,7.31
2019-03-24T20:01:19.432Z,7.03
2019-03-24T20:06:21.912Z,6.85
2019-03-24T20:11:24.292Z,6.50
2019-03-24T20:16:26.731Z,6.19
2019-03-24T20:21:29.228Z,5.98
2019-03-24T20:26:34.715Z,5.90
2019-03-24T20:31:37.243Z,6.01
2019-03-24T20:36:39.603Z,6.08
2019-03-24T20:41:43.069Z,6.14
2019-03-24T20:46:45.885Z,6.14
2019-03-24T20:51:48.264Z,6.18
2019-03-24T20:56:50.616Z,6.03
2019-03-24T21:01:56.243Z,5.99
2019-03-24T21:06:58.722Z,5.74
2019-03-24T21:12:01.284Z,5.79
2019-03-24T21:17:06.752Z,5.84
2019-03-24T21:22:09.211Z,5.86
2019-03-24T21:27:14.868Z,5.92
2019-03-24T21:32:17.275Z,5.79
2019-03-24T21:37:19.655Z,5.73
2019-03-24T21:42:22.072Z,5.61
2019-03-24T21:47:24.499Z,5.57
2019-03-24T21:52:26.856Z,5.56
2019-03-24T21:57:29.222Z,5.25
2019-03-24T22:02:31.607Z,5.43
2019-03-24T22:07:33.959Z,5.28
2019-03-24T22:12:36.376Z,4.97
2019-03-24T22:17:38.843Z,4.94
2019-03-24T22:22:41.237Z,4.91
2019-03-24T22:27:43.603Z,4.86
2019-03-24T22:32:46.271Z,4.63
2019-03-24T22:37:48.683Z,4.54
2019-03-24T22:42:51.093Z,4.57
2019-03-24T22:47:53.487Z,4.64
2019-03-24T22:52:57.068Z,4.62
2019-03-24T22:57:59.449Z,4.47
2019-03-24T23:03:01.842Z,4.41
2019-03-24T23:08:04.216Z,4.45
2019-03-24T23:13:06.576Z,4.48
2019-03-24T23:18:09.935Z,4.36
2019-03-24T23:23:12.452Z,4.18
2019-03-24T23:28:15.335Z,4.26
2019-03-24T23:33:18.611Z,4.42
2019-03-24T23:38:20.989Z,4.22
2019-03-24T23:43:23.396Z,4.27
2019-03-24T23:48:25.791Z,4.24
2019-03-24T23:53:28.364Z,3.93
2019-03-24T23:58:40.243Z,3.71
